Time;durP1;ratioP1;P1;durP2;ratioP2;P2;SDS_P1;SDS_P2;PMS_P1;PMS_P2;Temp;Humidity;BMP_temperature;BMP_pressure;BME280_temperature;BME280_humidity;BME280_pressure;Samples;Min_cycle;Max_cycle;Signal;HPM_P1;HPM_P2
2021/01/29 00:01:34;;;;;;;5.32;1.80;;;4.70;95.40;;;;;;4969588;28;20338;-84
2021/01/29 00:04:03;;;;;;;2.47;1.55;;;4.90;95.20;;;;;;4977764;28;20354;-87
2021/01/29 00:06:40;;;;;;;6.47;2.75;;;4.90;95.10;;;;;;4963524;28;20114;-84
2021/01/29 00:09:13;;;;;;;3.60;2.15;;;4.90;95.20;;;;;;4969485;28;20057;-82
2021/01/29 00:11:40;;;;;;;5.18;2.47;;;5.00;94.60;;;;;;4969284;28;20074;-84
2021/01/29 00:14:08;;;;;;;15.38;7.32;;;4.80;94.80;;;;;;4954715;28;20334;-84
2021/01/29 00:16:37;;;;;;;11.48;4.50;;;4.70;95.40;;;;;;4947264;28;20051;-84
2021/01/29 00:19:09;;;;;;;6.30;2.28;;;4.90;95.40;;;;;;4953544;28;20058;-86
2021/01/29 00:21:36;;;;;;;4.75;2.30;;;4.90;95.10;;;;;;4965674;28;20055;-84
2021/01/29 00:24:08;;;;;;;4.85;2.35;;;4.90;94.80;;;;;;4953850;28;20259;-84
2021/01/29 00:26:35;;;;;;;5.72;1.88;;;4.80;95.20;;;;;;4956843;28;20094;-84
2021/01/29 00:29:05;;;;;;;5.20;2.00;;;4.80;95.10;;;;;;4954793;28;20067;-83
2021/01/29 00:31:32;;;;;;;3.97;1.73;;;4.90;95.50;;;;;;4988268;28;20051;-83
2021/01/29 00:33:59;;;;;;;4.57;1.60;;;5.10;94.70;;;;;;5000960;28;20054;-83
2021/01/29 00:36:28;;;;;;;3.92;1.63;;;5.10;94.40;;;;;;4973206;28;20079;-85
2021/01/29 00:38:55;;;;;;;3.35;1.95;;;5.00;94.50;;;;;;4997134;28;20270;-83
2021/01/29 00:41:24;;;;;;;3.60;1.80;;;4.90;94.40;;;;;;4976933;28;20046;-85
2021/01/29 00:43:53;;;;;;;5.25;2.22;;;4.80;95.20;;;;;;5013537;28;20266;-83
2021/01/29 00:46:21;;;;;;;6.70;2.38;;;4.80;95.40;;;;;;4959232;28;20055;-83
2021/01/29 00:48:48;;;;;;;6.60;2.50;;;4.90;95.70;;;;;;4983813;28;20055;-85
2021/01/29 00:51:16;;;;;;;3.20;1.42;;;5.00;95.20;;;;;;4958955;28;20058;-84
2021/01/29 00:53:44;;;;;;;2.47;1.30;;;5.00;94.80;;;;;;4970194;28;20063;-83
2021/01/29 00:56:20;;;;;;;2.65;1.35;;;4.90;94.70;;;;;;4954885;28;20039;-83
2021/01/29 00:59:03;;;;;;;4.32;1.42;;;5.00;94.60;;;;;;5008919;28;20142;-83
2021/01/29 01:01:50;;;;;;;2.35;1.02;;;5.00;94.30;;;;;;4977526;28;20491;-83
2021/01/29 01:04:18;;;;;;;3.47;1.60;;;5.00;94.00;;;;;;4987589;28;20090;-84
2021/01/29 01:06:45;;;;;;;3.88;1.52;;;5.00;94.00;;;;;;4972644;28;20053;-83
2021/01/29 01:09:38;;;;;;;5.43;1.63;;;4.90;94.00;;;;;;4953481;28;20055;-84
2021/01/29 01:12:08;;;;;;;3.35;1.52;;;4.90;94.00;;;;;;4963954;28;20055;-84
2021/01/29 01:14:55;;;;;;;5.40;1.75;;;4.80;93.90;;;;;;4978472;28;20055;-86
2021/01/29 01:17:38;;;;;;;3.17;1.58;;;4.70;94.50;;;;;;4963174;28;20449;-83
2021/01/29 01:20:18;;;;;;;2.50;1.05;;;4.60;94.80;;;;;;4972975;28;20356;-84
2021/01/29 01:22:45;;;;;;;1.88;0.93;;;4.70;94.80;;;;;;4974242;28;20330;-86
2021/01/29 01:25:34;;;;;;;2.33;1.20;;;4.70;94.90;;;;;;4999873;28;20117;-85
2021/01/29 01:28:07;;;;;;;2.08;0.88;;;4.80;94.60;;;;;;4986201;28;20412;-87
2021/01/29 01:30:41;;;;;;;1.83;0.65;;;4.80;94.30;;;;;;4967192;28;20061;-87
2021/01/29 01:33:15;;;;;;;4.22;1.15;;;4.70;94.20;;;;;;4969489;28;20058;-85
2021/01/29 01:35:50;;;;;;;2.25;1.10;;;4.70;94.60;;;;;;4970936;28;20118;-86
2021/01/29 01:38:21;;;;;;;3.92;1.17;;;4.80;94.20;;;;;;4984150;28;20324;-84
2021/01/29 01:40:51;;;;;;;2.38;1.20;;;4.80;94.20;;;;;;4984022;28;20834;-84
2021/01/29 01:43:24;;;;;;;3.42;1.25;;;4.60;94.30;;;;;;4982695;28;20134;-85
2021/01/29 01:46:14;;;;;;;3.10;1.30;;;4.60;95.10;;;;;;4985955;28;20089;-85
2021/01/29 01:49:05;;;;;;;3.10;1.05;;;4.70;95.00;;;;;;4986933;28;20077;-87
2021/01/29 01:51:58;;;;;;;2.97;1.17;;;4.70;95.00;;;;;;4972024;28;20126;-83
2021/01/29 01:54:39;;;;;;;2.88;1.52;;;4.80;94.80;;;;;;4980470;28;20065;-84
2021/01/29 01:57:08;;;;;;;3.15;1.25;;;4.80;94.30;;;;;;4977857;28;20498;-85
2021/01/29 02:00:00;;;;;;;2.50;1.65;;;4.80;94.00;;;;;;4971410;28;20427;-85
2021/01/29 02:02:41;;;;;;;3.63;1.73;;;4.80;94.00;;;;;;4967772;28;20077;-85
2021/01/29 02:05:41;;;;;;;2.60;1.20;;;4.70;94.10;;;;;;4977531;28;20054;-88
2021/01/29 02:08:10;;;;;;;1.98;1.13;;;4.80;93.90;;;;;;4949844;28;20246;-84
2021/01/29 02:10:58;;;;;;;2.70;1.05;;;4.80;94.00;;;;;;4952001;28;20305;-85
2021/01/29 02:13:41;;;;;;;2.78;1.20;;;4.60;94.20;;;;;;4985845;28;20051;-84
2021/01/29 02:16:35;;;;;;;;;;;4.60;94.80;;;;;;4969495;28;20170;-84
2021/01/29 02:19:37;;;;;;;4.40;1.20;;;4.50;95.00;;;;;;4985678;28;19954;-85
2021/01/29 02:22:44;;;;;;;2.85;1.30;;;4.50;95.10;;;;;;4970005;28;20047;-84
2021/01/29 02:26:24;;;;;;;1.88;0.60;;;4.50;94.80;;;;;;4970066;28;20055;-85
2021/01/29 02:29:43;;;;;;;3.63;0.70;;;4.40;94.90;;;;;;4965179;28;20042;-84
2021/01/29 02:32:43;;;;;;;2.03;0.55;;;4.40;94.90;;;;;;4965735;28;20285;-84
2021/01/29 02:35:25;;;;;;;;;;;4.50;95.00;;;;;;4926896;28;20054;-84
2021/01/29 02:38:21;;;;;;;1.75;0.50;;;4.50;95.40;;;;;;4965617;28;20563;-84
2021/01/29 02:40:59;;;;;;;5.60;1.50;;;4.70;94.80;;;;;;4980034;28;20358;-83
2021/01/29 02:43:46;;;;;;;3.17;1.15;;;4.70;94.80;;;;;;4997323;28;20043;-84
2021/01/29 02:46:38;;;;;;;4.60;1.63;;;4.80;94.40;;;;;;4978640;28;20066;-84
2021/01/29 02:49:37;;;;;;;2.55;1.25;;;4.80;93.80;;;;;;4948932;28;20059;-84
2021/01/29 02:52:44;;;;;;;2.33;0.90;;;4.90;93.70;;;;;;4959950;28;20078;-84
2021/01/29 02:55:35;;;;;;;2.60;0.93;;;4.90;93.30;;;;;;4967140;28;20054;-85
2021/01/29 02:58:23;;;;;;;3.60;1.25;;;4.90;93.40;;;;;;4984318;28;20059;-84
2021/01/29 03:01:14;;;;;;;2.72;1.00;;;4.70;93.80;;;;;;4975663;28;20096;-84
2021/01/29 03:03:45;;;;;;;2.95;1.55;;;4.70;94.00;;;;;;4967613;28;20050;-84
2021/01/29 03:06:39;;;;;;;3.28;1.30;;;4.70;94.50;;;;;;4983964;28;20081;-83
2021/01/29 03:09:13;;;;;;;3.30;1.17;;;4.80;94.30;;;;;;4983700;28;20051;-88
2021/01/29 03:12:05;;;;;;;2.97;1.33;;;4.90;93.80;;;;;;4985171;28;20244;-83
2021/01/29 03:14:57;;;;;;;3.10;1.40;;;5.00;93.60;;;;;;4970582;28;21470;-87
2021/01/29 03:17:47;;;;;;;3.38;1.30;;;5.00;93.20;;;;;;4973664;28;20346;-85
2021/01/29 03:20:37;;;;;;;2.85;1.30;;;5.00;93.10;;;;;;4969456;28;20313;-86
2021/01/29 03:23:29;;;;;;;3.00;1.10;;;5.00;93.20;;;;;;4970329;28;20074;-84
2021/01/29 03:26:20;;;;;;;4.03;1.38;;;4.90;93.30;;;;;;4966629;28;20874;-86
2021/01/29 03:29:11;;;;;;;2.35;1.08;;;4.80;93.60;;;;;;4999948;28;20050;-86
2021/01/29 03:32:00;;;;;;;4.25;1.38;;;4.90;93.60;;;;;;4946653;28;20813;-88
2021/01/29 03:34:58;;;;;;;2.17;0.90;;;4.70;93.80;;;;;;4947922;28;20573;-84
2021/01/29 03:37:52;;;;;;;3.83;1.38;;;4.90;93.80;;;;;;4981338;28;20051;-85
2021/01/29 03:40:38;;;;;;;2.45;1.20;;;4.90;93.80;;;;;;4970952;28;20055;-84
2021/01/29 03:43:29;;;;;;;3.67;1.17;;;4.90;93.50;;;;;;4971323;28;20047;-87
2021/01/29 03:46:18;;;;;;;;;;;4.90;93.50;;;;;;4968802;28;20362;-84
2021/01/29 03:49:11;;;;;;;2.17;0.80;;;4.70;93.70;;;;;;4983262;28;19926;-85
2021/01/29 03:52:11;;;;;;;2.65;0.80;;;4.80;93.80;;;;;;4984895;28;22059;-86
2021/01/29 03:55:09;;;;;;;3.75;1.10;;;4.70;93.80;;;;;;4970200;28;20070;-85
2021/01/29 03:58:02;;;;;;;3.45;1.38;;;4.80;94.00;;;;;;4970273;28;20055;-85
2021/01/29 04:00:56;;;;;;;6.05;1.63;;;4.90;93.70;;;;;;4991960;28;20061;-83
2021/01/29 04:03:47;;;;;;;3.42;0.98;;;5.00;93.40;;;;;;4977885;28;20066;-85
2021/01/29 04:06:37;;;;;;;2.25;0.75;;;5.00;93.40;;;;;;4958582;28;20301;-85
2021/01/29 04:09:28;;;;;;;2.95;1.27;;;4.90;93.30;;;;;;4974177;28;20117;-83
2021/01/29 04:12:24;;;;;;;4.35;1.90;;;4.90;93.50;;;;;;4975168;28;21105;-84
2021/01/29 04:15:13;;;;;;;5.40;1.40;;;4.80;93.70;;;;;;5000465;28;21089;-86
2021/01/29 04:17:47;;;;;;;2.65;1.13;;;4.90;93.80;;;;;;4978529;28;20057;-85
2021/01/29 04:20:24;;;;;;;2.25;1.10;;;4.90;93.80;;;;;;4961788;28;20050;-84
2021/01/29 04:22:55;;;;;;;5.47;1.50;;;4.90;93.80;;;;;;4966929;28;20334;-83
2021/01/29 04:25:23;;;;;;;;;;;5.00;93.50;;;;;;4970129;28;20481;-84
2021/01/29 04:28:05;;;;;;;2.53;1.30;;;5.00;93.40;;;;;;4984614;28;20037;-83
2021/01/29 04:30:36;;;;;;;3.25;1.30;;;5.00;93.40;;;;;;4974396;28;20065;-85
2021/01/29 04:33:08;;;;;;;4.05;1.23;;;4.90;93.70;;;;;;4981645;28;20259;-83
2021/01/29 04:35:38;;;;;;;4.35;1.65;;;4.80;93.90;;;;;;4982714;28;20282;-86
2021/01/29 04:38:12;;;;;;;3.22;1.58;;;4.90;93.80;;;;;;4969550;28;20136;-84
2021/01/29 04:40:50;;;;;;;2.72;1.08;;;4.80;94.10;;;;;;4961547;28;20162;-83
2021/01/29 04:43:55;;;;;;;2.35;1.17;;;4.80;94.50;;;;;;4949550;28;20054;-85
2021/01/29 04:46:56;;;;;;;2.45;1.25;;;4.80;94.20;;;;;;4957193;28;22280;-83
2021/01/29 04:49:37;;;;;;;3.03;0.98;;;4.80;93.80;;;;;;4949150;28;20230;-82
2021/01/29 04:52:37;;;;;;;4.07;1.98;;;4.80;94.00;;;;;;5006082;28;20118;-85
2021/01/29 04:55:37;;;;;;;4.20;1.17;;;4.70;94.30;;;;;;4974657;28;20099;-85
2021/01/29 04:58:09;;;;;;;2.35;1.17;;;4.80;94.60;;;;;;4956776;28;20059;-84
2021/01/29 05:01:40;;;;;;;2.70;1.02;;;4.90;94.20;;;;;;4954889;28;20066;-83
2021/01/29 05:05:07;;;;;;;1.35;0.77;;;4.90;94.10;;;;;;4954942;28;20115;-83
2021/01/29 05:08:18;;;;;;;3.00;0.93;;;4.80;94.10;;;;;;4941129;28;20381;-86
2021/01/29 05:11:29;;;;;;;2.53;0.90;;;4.70;94.90;;;;;;4960020;28;20254;-85
2021/01/29 05:14:12;;;;;;;3.70;1.02;;;4.70;95.30;;;;;;4957553;28;20059;-84
2021/01/29 05:17:13;;;;;;;2.58;1.08;;;4.90;95.20;;;;;;4979148;28;20116;-85
2021/01/29 05:19:54;;;;;;;1.77;1.38;;;4.90;95.30;;;;;;4965105;28;21429;-83
2021/01/29 05:22:41;;;;;;;3.97;1.17;;;4.80;95.00;;;;;;4984545;28;20047;-85
2021/01/29 05:25:41;;;;;;;3.25;0.90;;;4.90;94.70;;;;;;4975309;28;20066;-85
2021/01/29 05:28:45;;;;;;;1.65;0.90;;;4.80;94.80;;;;;;4976421;28;20062;-83
2021/01/29 05:31:37;;;;;;;4.88;1.15;;;4.80;95.20;;;;;;4940454;28;20231;-83
2021/01/29 05:34:45;;;;;;;2.25;1.00;;;4.80;95.00;;;;;;4958803;28;20055;-85
2021/01/29 05:37:55;;;;;;;3.72;1.42;;;4.90;95.20;;;;;;4956205;28;20070;-82
2021/01/29 05:41:03;;;;;;;1.90;1.10;;;4.90;95.50;;;;;;4941459;28;20062;-84
2021/01/29 05:44:04;;;;;;;3.10;0.90;;;5.10;94.70;;;;;;4949340;28;20058;-83
2021/01/29 05:46:39;;;;;;;4.90;1.80;;;5.10;94.80;;;;;;4957874;28;20051;-85
2021/01/29 05:49:23;;;;;;;3.08;0.90;;;5.00;94.80;;;;;;4966469;28;20055;-86
2021/01/29 05:52:32;;;;;;;2.20;1.13;;;5.00;95.00;;;;;;4966526;28;20054;-83
2021/01/29 05:55:29;;;;;;;2.83;0.85;;;5.10;94.90;;;;;;4925060;28;20152;-84
2021/01/29 05:58:33;;;;;;;1.25;0.65;;;5.20;94.50;;;;;;4966291;28;20055;-84
2021/01/29 06:01:53;;;;;;;1.45;0.82;;;5.30;94.10;;;;;;4976826;28;20047;-85
2021/01/29 06:04:44;;;;;;;1.15;0.47;;;5.30;93.90;;;;;;4975293;28;21316;-85
2021/01/29 06:07:37;;;;;;;1.95;0.65;;;5.20;94.10;;;;;;4945193;28;20106;-87
2021/01/29 06:10:32;;;;;;;1.52;1.13;;;5.10;94.50;;;;;;4942195;28;20053;-84
2021/01/29 06:13:32;;;;;;;1.30;0.45;;;5.00;95.00;;;;;;4959788;28;20352;-85
2021/01/29 06:16:51;;;;;;;1.60;0.80;;;5.00;95.50;;;;;;4939575;28;20061;-85
2021/01/29 06:19:43;;;;;;;1.38;0.45;;;5.00;95.20;;;;;;4952479;28;20381;-83
2021/01/29 06:22:48;;;;;;;2.75;0.80;;;5.20;95.30;;;;;;4961082;28;20347;-88
2021/01/29 06:25:38;;;;;;;3.38;1.23;;;5.20;94.90;;;;;;4947786;28;20055;-85
2021/01/29 06:28:41;;;;;;;1.38;0.75;;;5.20;94.70;;;;;;4975316;28;20058;-85
2021/01/29 06:31:50;;;;;;;1.15;0.47;;;5.20;94.90;;;;;;4944087;28;20327;-85
2021/01/29 06:34:36;;;;;;;1.20;0.68;;;5.20;94.90;;;;;;4956099;28;20477;-84
2021/01/29 06:37:14;;;;;;;2.00;0.70;;;5.20;95.00;;;;;;4942609;28;20059;-83
2021/01/29 06:39:57;;;;;;;2.05;0.70;;;5.30;94.90;;;;;;4951250;28;21057;-83
2021/01/29 06:42:45;;;;;;;2.67;0.93;;;5.30;95.10;;;;;;4963627;28;20070;-83
2021/01/29 06:45:24;;;;;;;2.00;1.02;;;5.30;95.10;;;;;;4960958;28;20063;-83
2021/01/29 06:48:21;;;;;;;4.15;0.93;;;5.20;95.50;;;;;;4957608;28;20118;-83
2021/01/29 06:51:15;;;;;;;3.95;1.27;;;5.20;95.80;;;;;;4947254;28;21723;-84
2021/01/29 06:54:17;;;;;;;5.40;0.70;;;5.20;96.00;;;;;;4937990;28;20333;-83
2021/01/29 06:57:06;;;;;;;3.80;0.98;;;5.20;96.30;;;;;;4937516;28;20055;-84
2021/01/29 07:00:10;;;;;;;2.13;0.77;;;5.30;96.10;;;;;;4946585;28;20059;-83
2021/01/29 07:03:15;;;;;;;2.22;1.23;;;5.50;95.80;;;;;;4973023;28;20059;-84
2021/01/29 07:06:15;;;;;;;2.63;1.20;;;5.40;95.80;;;;;;4972286;28;20070;-84
2021/01/29 07:09:07;;;;;;;3.13;1.83;;;5.40;96.30;;;;;;4960831;28;21262;-85
2021/01/29 07:11:56;;;;;;;1.20;0.40;;;5.40;96.90;;;;;;4957601;28;20054;-84
2021/01/29 07:14:54;;;;;;;2.08;1.23;;;5.60;97.20;;;;;;4975441;28;20053;-84
2021/01/29 07:17:40;;;;;;;3.03;1.25;;;5.70;96.90;;;;;;4956161;28;20541;-83
2021/01/29 07:20:45;;;;;;;1.95;0.90;;;5.70;96.50;;;;;;4940267;28;20194;-85
2021/01/29 07:23:35;;;;;;;4.28;1.05;;;5.70;96.60;;;;;;4972637;28;20908;-85
2021/01/29 07:26:23;;;;;;;1.80;1.05;;;5.80;96.50;;;;;;4941928;28;21004;-84
2021/01/29 07:29:11;;;;;;;4.15;1.48;;;5.80;96.60;;;;;;4962932;28;20899;-83
2021/01/29 07:31:55;;;;;;;2.47;1.02;;;5.90;96.30;;;;;;4974438;28;20043;-84
2021/01/29 07:34:30;;;;;;;4.07;1.98;;;5.90;96.70;;;;;;4940035;28;20291;-83
2021/01/29 07:37:34;;;;;;;3.22;1.40;;;6.00;96.10;;;;;;4943683;28;20059;-86
2021/01/29 07:40:26;;;;;;;4.13;1.80;;;5.90;96.40;;;;;;4957342;28;20047;-84
2021/01/29 07:43:10;;;;;;;3.67;1.30;;;6.00;96.40;;;;;;4948361;28;20052;-83
2021/01/29 07:45:50;;;;;;;3.35;1.08;;;6.30;97.70;;;;;;5000449;28;20105;-84
2021/01/29 07:48:46;;;;;;;3.38;1.00;;;6.40;97.40;;;;;;4978479;28;20058;-84
2021/01/29 07:51:22;;;;;;;5.18;0.70;;;6.60;97.90;;;;;;4976689;28;20123;-84
2021/01/29 07:54:09;;;;;;;1.15;0.40;;;7.20;98.40;;;;;;4964254;28;20286;-87
2021/01/29 07:56:51;;;;;;;1.67;0.70;;;7.50;98.40;;;;;;4983687;28;20069;-84
2021/01/29 07:59:33;;;;;;;0.98;0.30;;;7.80;98.20;;;;;;4987353;28;20222;-86
2021/01/29 08:02:11;;;;;;;0.10;0.10;;;8.20;97.80;;;;;;4984149;28;20667;-86
2021/01/29 08:04:52;;;;;;;1.13;0.35;;;8.20;98.00;;;;;;4956337;28;20350;-84
2021/01/29 08:07:36;;;;;;;1.42;0.43;;;8.20;98.50;;;;;;4985758;28;20348;-84
2021/01/29 08:10:09;;;;;;;0.95;0.30;;;8.20;98.80;;;;;;4996500;28;20050;-84
2021/01/29 08:12:47;;;;;;;0.10;0.10;;;8.10;98.70;;;;;;4964758;28;20054;-85
2021/01/29 08:15:31;;;;;;;0.88;0.20;;;8.10;98.90;;;;;;4995530;28;20047;-86
2021/01/29 08:18:42;;;;;;;0.70;0.20;;;8.00;99.00;;;;;;4961854;28;20063;-87
2021/01/29 08:21:50;;;;;;;0.13;0.10;;;8.00;98.90;;;;;;4981168;28;20278;-87
2021/01/29 08:24:39;;;;;;;0.25;0.10;;;7.90;99.30;;;;;;4942688;28;20058;-86
2021/01/29 08:27:35;;;;;;;0.15;0.10;;;7.80;99.20;;;;;;4946930;28;20070;-87
2021/01/29 08:30:38;;;;;;;2.08;0.60;;;7.80;99.20;;;;;;4958652;28;20102;-87
2021/01/29 08:33:49;;;;;;;0.47;0.27;;;7.70;99.50;;;;;;4960613;28;20102;-86
2021/01/29 08:36:54;;;;;;;0.80;0.20;;;7.70;99.40;;;;;;4973893;28;20383;-85
2021/01/29 08:39:27;;;;;;;0.98;0.32;;;7.70;99.50;;;;;;4950656;28;20142;-84
2021/01/29 08:42:14;;;;;;;0.45;0.10;;;7.70;99.30;;;;;;4951944;28;20051;-87
2021/01/29 08:45:02;;;;;;;0.60;0.15;;;7.70;99.50;;;;;;4976689;28;20150;-85
2021/01/29 08:47:45;;;;;;;0.13;0.13;;;7.70;99.40;;;;;;4945933;28;20245;-88
2021/01/29 08:50:22;;;;;;;0.47;0.20;;;7.70;99.60;;;;;;4962612;28;22877;-85
2021/01/29 08:53:20;;;;;;;0.35;0.20;;;7.70;99.60;;;;;;4969876;28;20304;-86
2021/01/29 08:56:03;;;;;;;0.10;0.10;;;7.70;99.40;;;;;;4937616;28;20239;-86
2021/01/29 08:58:36;;;;;;;0.90;0.20;;;7.70;99.60;;;;;;4980096;28;20051;-85
2021/01/29 09:01:12;;;;;;;0.17;0.13;;;7.70;99.40;;;;;;4941435;28;20059;-88
2021/01/29 09:03:45;;;;;;;0.70;0.38;;;7.70;99.50;;;;;;4955957;28;20522;-88
2021/01/29 09:06:20;;;;;;;0.47;0.47;;;7.80;99.50;;;;;;4967218;28;20053;-89
2021/01/29 09:08:57;;;;;;;0.28;0.10;;;7.80;99.50;;;;;;4977048;28;20074;-89
2021/01/29 09:11:36;;;;;;;1.05;0.30;;;7.80;99.40;;;;;;4975632;28;20086;-86
2021/01/29 09:14:12;;;;;;;2.95;0.32;;;7.80;99.60;;;;;;4962708;28;20070;-88
2021/01/29 09:16:42;;;;;;;0.85;0.20;;;7.70;99.20;;;;;;4992208;28;20599;-90
2021/01/29 09:19:14;;;;;;;0.70;0.20;;;7.80;99.30;;;;;;4960142;28;20491;-88
2021/01/29 09:21:52;;;;;;;0.40;0.10;;;7.80;99.40;;;;;;4973415;28;20058;-87
2021/01/29 09:24:25;;;;;;;0.80;0.30;;;7.80;99.20;;;;;;4985789;28;20058;-87
2021/01/29 09:27:16;;;;;;;1.70;0.30;;;7.80;99.20;;;;;;4961266;28;20062;-86
2021/01/29 09:29:51;;;;;;;1.35;0.50;;;7.80;99.50;;;;;;4976564;28;20099;-85
2021/01/29 09:32:39;;;;;;;0.30;0.10;;;7.80;99.40;;;;;;4958710;28;20323;-85
2021/01/29 09:35:10;;;;;;;0.80;0.40;;;7.80;99.60;;;;;;4955342;28;20058;-86
2021/01/29 09:37:47;;;;;;;0.50;0.10;;;7.70;98.90;;;;;;5000475;28;20146;-86
2021/01/29 09:40:19;;;;;;;0.98;0.20;;;7.70;99.30;;;;;;4991564;28;20055;-87
2021/01/29 09:42:54;;;;;;;1.38;0.38;;;7.70;99.40;;;;;;4985351;28;20219;-87
2021/01/29 09:45:25;;;;;;;0.55;0.20;;;7.80;99.60;;;;;;4972494;28;20127;-84
2021/01/29 09:47:59;;;;;;;2.83;0.45;;;7.80;99.50;;;;;;4954193;28;20061;-84
2021/01/29 09:50:28;;;;;;;0.10;0.10;;;7.80;99.50;;;;;;4956971;28;20074;-84
2021/01/29 09:53:08;;;;;;;1.35;0.30;;;7.80;99.60;;;;;;4948342;28;20047;-87
2021/01/29 09:55:40;;;;;;;1.08;0.35;;;7.80;99.60;;;;;;4953796;28;20063;-85
2021/01/29 09:58:15;;;;;;;0.40;0.20;;;7.80;99.40;;;;;;4988082;28;20054;-87
2021/01/29 10:00:45;;;;;;;1.50;0.30;;;7.80;99.40;;;;;;4969885;28;20054;-86
2021/01/29 10:03:19;;;;;;;0.10;0.10;;;7.90;99.10;;;;;;4997534;28;20063;-83
2021/01/29 10:05:49;;;;;;;2.15;0.40;;;7.90;99.20;;;;;;4991894;28;20365;-84
2021/01/29 10:08:18;;;;;;;;;;;8.00;98.70;;;;;;4972917;28;20142;-85
2021/01/29 10:10:50;;;;;;;0.28;0.10;;;8.00;98.80;;;;;;5012853;28;20125;-88
2021/01/29 10:13:43;;;;;;;0.85;0.57;;;8.00;98.20;;;;;;4983456;28;20054;-85
2021/01/29 10:16:24;;;;;;;0.93;0.32;;;8.00;98.30;;;;;;4981519;28;20047;-85
2021/01/29 10:18:59;;;;;;;1.00;0.38;;;8.10;98.00;;;;;;4991472;28;20117;-85
2021/01/29 10:21:54;;;;;;;3.92;1.52;;;8.10;98.20;;;;;;4949394;28;20043;-82
2021/01/29 10:24:28;;;;;;;1.52;0.50;;;8.10;98.40;;;;;;4977023;28;20059;-87
2021/01/29 10:27:01;;;;;;;0.55;0.20;;;8.20;98.10;;;;;;4977681;28;20070;-86
2021/01/29 10:29:33;;;;;;;1.70;0.82;;;8.20;97.10;;;;;;4976978;28;20055;-87
2021/01/29 10:32:09;;;;;;;2.47;0.30;;;8.20;97.20;;;;;;4977656;28;20058;-85
2021/01/29 10:34:42;;;;;;;6.32;0.40;;;8.30;96.30;;;;;;4961387;28;20109;-85
2021/01/29 10:37:17;;;;;;;3.17;0.50;;;8.40;96.90;;;;;;4972616;28;20114;-88
2021/01/29 10:40:19;;;;;;;1.80;0.50;;;8.50;95.90;;;;;;4995921;28;20058;-85
2021/01/29 10:43:04;;;;;;;0.68;0.20;;;8.50;95.30;;;;;;4971318;28;20112;-86
2021/01/29 10:45:59;;;;;;;3.48;0.93;;;8.60;94.60;;;;;;3759305;28;10022548;-85
2021/01/29 10:48:45;;;;;;;7.50;0.82;;;8.60;95.70;;;;;;3080600;28;10001973;-87
2021/01/29 10:51:24;;;;;;;1.92;0.98;;;8.60;94.20;;;;;;4987244;28;20046;-88
2021/01/29 10:53:57;;;;;;;3.00;0.80;;;8.70;94.30;;;;;;4954482;28;20043;-85
2021/01/29 10:56:30;;;;;;;7.60;1.42;;;8.70;93.20;;;;;;5002203;28;20076;-85
2021/01/29 10:59:05;;;;;;;1.85;0.45;;;8.80;92.70;;;;;;4972001;28;20081;-85
2021/01/29 11:01:38;;;;;;;3.00;1.23;;;8.90;93.00;;;;;;4968461;28;20054;-87
2021/01/29 11:04:09;;;;;;;2.63;0.52;;;8.80;92.80;;;;;;4970243;28;20361;-84
2021/01/29 11:06:43;;;;;;;2.47;0.60;;;8.80;93.20;;;;;;4987504;28;20059;-85
2021/01/29 11:09:22;;;;;;;3.00;1.33;;;8.90;93.50;;;;;;4963967;28;20054;-86
2021/01/29 11:12:00;;;;;;;1.20;0.25;;;9.00;92.40;;;;;;5006555;28;20091;-86
2021/01/29 11:14:35;;;;;;;2.53;0.40;;;9.10;91.60;;;;;;4975240;28;20054;-87
2021/01/29 11:17:16;;;;;;;1.35;0.35;;;9.20;92.40;;;;;;4982867;28;20114;-86
2021/01/29 11:19:46;;;;;;;4.07;0.70;;;9.30;90.40;;;;;;4968638;28;20058;-84
2021/01/29 11:22:26;;;;;;;6.32;0.80;;;9.40;90.90;;;;;;4961048;28;20090;-83
2021/01/29 11:25:05;;;;;;;9.43;1.52;;;9.40;90.10;;;;;;4977512;28;20061;-87
2021/01/29 11:27:39;;;;;;;6.07;1.20;;;9.60;88.60;;;;;;4967014;28;20055;-85
2021/01/29 11:30:14;;;;;;;3.17;1.10;;;9.80;89.40;;;;;;4989964;28;20062;-82
2021/01/29 11:32:45;;;;;;;4.10;0.60;;;10.50;86.90;;;;;;4962110;28;20054;-85
2021/01/29 11:35:27;;;;;;;2.50;0.38;;;10.70;85.90;;;;;;4981354;28;20059;-86
2021/01/29 11:38:13;;;;;;;5.30;0.68;;;10.60;84.20;;;;;;4977866;28;20174;-86
2021/01/29 11:40:51;;;;;;;5.57;1.42;;;10.50;84.90;;;;;;4995826;28;20078;-84
2021/01/29 11:43:31;;;;;;;8.23;1.45;;;10.70;84.40;;;;;;5011174;28;20058;-88
2021/01/29 11:46:08;;;;;;;3.47;0.70;;;10.60;84.00;;;;;;4990815;28;20361;-85
2021/01/29 11:48:43;;;;;;;3.13;0.43;;;10.40;83.70;;;;;;4967543;28;20964;-84
2021/01/29 11:51:19;;;;;;;5.63;0.75;;;10.10;84.00;;;;;;4991473;28;20438;-84
2021/01/29 11:53:52;;;;;;;8.73;0.73;;;10.10;85.50;;;;;;4980992;28;20140;-87
2021/01/29 11:56:26;;;;;;;1.70;0.47;;;10.00;83.70;;;;;;4977115;28;20077;-88
2021/01/29 11:59:03;;;;;;;4.88;0.90;;;10.00;83.90;;;;;;4969208;28;20412;-86
2021/01/29 12:01:43;;;;;;;7.38;1.05;;;10.00;82.20;;;;;;4989274;28;20130;-86
2021/01/29 12:04:22;;;;;;;4.85;0.63;;;10.10;83.60;;;;;;4957678;28;20336;-86
2021/01/29 12:06:58;;;;;;;4.47;0.80;;;10.10;83.00;;;;;;4978234;28;20238;-85
2021/01/29 12:09:39;;;;;;;3.67;1.05;;;10.00;82.50;;;;;;4986965;28;20055;-87
2021/01/29 12:12:12;;;;;;;3.55;0.93;;;10.10;80.30;;;;;;4964006;28;20059;-87
2021/01/29 12:15:14;;;;;;;5.38;1.20;;;10.10;81.50;;;;;;4967066;28;20082;-86
2021/01/29 12:17:48;;;;;;;11.15;1.27;;;10.10;81.00;;;;;;4948696;28;20063;-84
2021/01/29 12:20:20;;;;;;;8.13;1.67;;;10.00;81.30;;;;;;4999330;28;20250;-86
2021/01/29 12:22:54;;;;;;;7.18;1.13;;;9.90;81.10;;;;;;4966993;28;20054;-85
2021/01/29 12:25:52;;;;;;;6.30;1.33;;;10.10;80.70;;;;;;5002762;28;20113;-83
2021/01/29 12:28:32;;;;;;;7.43;1.42;;;10.40;79.30;;;;;;4971522;28;20302;-84
2021/01/29 12:31:07;;;;;;;4.93;0.77;;;10.90;79.50;;;;;;4976359;28;20246;-84
2021/01/29 12:33:47;;;;;;;5.82;0.77;;;11.80;76.00;;;;;;4991017;28;20054;-82
2021/01/29 12:36:19;;;;;;;9.50;1.48;;;12.50;72.40;;;;;;5008886;28;20297;-83
2021/01/29 12:38:52;;;;;;;2.17;0.70;;;12.30;71.90;;;;;;4975684;28;20136;-83
2021/01/29 12:41:25;;;;;;;5.07;0.88;;;12.30;71.90;;;;;;4977270;28;20057;-83
2021/01/29 12:44:14;;;;;;;4.30;0.60;;;12.30;72.50;;;;;;4971165;28;21154;-86
2021/01/29 12:46:47;;;;;;;6.05;1.08;;;11.70;73.60;;;;;;4986827;28;20071;-82
2021/01/29 12:49:20;;;;;;;4.40;0.70;;;11.30;74.60;;;;;;4960182;28;20059;-83
2021/01/29 12:51:52;;;;;;;4.18;1.00;;;11.10;75.40;;;;;;4993770;28;20059;-82
2021/01/29 12:54:29;;;;;;;5.30;0.70;;;10.80;76.40;;;;;;4947687;28;20055;-83
2021/01/29 12:57:05;;;;;;;6.32;0.57;;;10.60;77.20;;;;;;4983251;28;20063;-86
2021/01/29 12:59:44;;;;;;;3.97;0.63;;;10.50;77.20;;;;;;4972991;28;20043;-84
2021/01/29 13:03:05;;;;;;;5.03;1.30;;;10.60;78.40;;;;;;4966644;28;20047;-84
2021/01/29 13:05:56;;;;;;;3.13;0.65;;;10.60;78.30;;;;;;4962430;28;20282;-87
2021/01/29 13:08:56;;;;;;;3.95;0.65;;;10.60;78.90;;;;;;4977215;28;20134;-85
2021/01/29 13:11:34;;;;;;;2.65;0.82;;;10.50;77.10;;;;;;4950738;28;20511;-83
2021/01/29 13:14:16;;;;;;;4.85;1.13;;;10.40;78.90;;;;;;4987110;28;20472;-85
2021/01/29 13:17:17;;;;;;;2.03;0.50;;;10.30;78.00;;;;;;4988764;28;20058;-82
2021/01/29 13:19:47;;;;;;;4.28;0.55;;;10.20;78.50;;;;;;4988956;28;20110;-84
2021/01/29 13:22:43;;;;;;;3.58;0.60;;;10.10;78.80;;;;;;4990987;28;20047;-84
2021/01/29 13:25:19;;;;;;;1.83;0.30;;;10.10;79.80;;;;;;4979518;28;20051;-84
2021/01/29 13:27:53;;;;;;;1.98;0.85;;;10.20;79.50;;;;;;4979181;28;20093;-84
2021/01/29 13:30:28;;;;;;;0.88;0.30;;;10.20;79.20;;;;;;4965155;28;20060;-86
2021/01/29 13:32:56;;;;;;;5.40;0.70;;;10.10;79.70;;;;;;4971383;28;20062;-84
2021/01/29 13:35:31;;;;;;;4.40;0.75;;;10.00;80.10;;;;;;4977451;28;20070;-85
2021/01/29 13:38:09;;;;;;;5.70;0.70;;;9.90;80.40;;;;;;4956713;28;20059;-86
2021/01/29 13:40:40;;;;;;;2.42;0.40;;;9.80;81.80;;;;;;4961709;28;20244;-85
2021/01/29 13:43:17;;;;;;;1.70;0.30;;;9.90;81.40;;;;;;4968093;28;20055;-86
2021/01/29 13:45:46;;;;;;;3.47;0.80;;;9.90;81.50;;;;;;4975207;28;20077;-83
2021/01/29 13:48:18;;;;;;;6.43;0.43;;;9.90;81.60;;;;;;4951320;28;20358;-83
2021/01/29 13:50:48;;;;;;;1.95;0.50;;;10.00;82.10;;;;;;4968689;28;24378;-84
2021/01/29 13:53:32;;;;;;;1.90;0.63;;;9.90;82.10;;;;;;4975201;28;20573;-84
2021/01/29 13:56:06;;;;;;;3.15;0.50;;;9.90;82.20;;;;;;4990757;28;20478;-84
2021/01/29 13:58:40;;;;;;;7.45;0.95;;;9.80;82.10;;;;;;5011065;28;20381;-84
2021/01/29 14:01:11;;;;;;;2.65;0.40;;;9.80;82.10;;;;;;4969727;28;20259;-85
2021/01/29 14:03:50;;;;;;;7.40;0.40;;;9.80;82.00;;;;;;4997982;28;20053;-84
2021/01/29 14:06:19;;;;;;;1.48;0.60;;;9.80;81.70;;;;;;5006049;28;20072;-83
2021/01/29 14:08:47;;;;;;;2.22;0.38;;;9.80;81.60;;;;;;4987318;28;20112;-85
2021/01/29 14:11:26;;;;;;;4.65;0.70;;;9.80;81.70;;;;;;4973465;28;20055;-83
2021/01/29 14:14:13;;;;;;;1.52;0.35;;;9.80;81.30;;;;;;4974341;28;20510;-84
2021/01/29 14:16:50;;;;;;;5.15;0.85;;;9.90;81.70;;;;;;4957640;28;20062;-83
2021/01/29 14:19:32;;;;;;;2.40;0.25;;;10.10;81.30;;;;;;4963641;28;20047;-82
2021/01/29 14:22:09;;;;;;;3.20;0.80;;;10.00;80.80;;;;;;4968374;28;20090;-81